Time;durP1;ratioP1;P1;durP2;ratioP2;P2;SDS_P1;SDS_P2;PMS_P1;PMS_P2;Temp;Humidity;BMP_temperature;BMP_pressure;BME280_temperature;BME280_humidity;BME280_pressure;Samples;Min_cycle;Max_cycle;Signal;HPM_P1;HPM_P2
2023/10/28 00:00:26;;;;;;;13.30;5.60;;;;;;;;;;5013122;28;20033;-70
2023/10/28 00:02:51;;;;;;;11.82;5.63;;;;;;;;;;5013524;28;20109;-70
2023/10/28 00:05:18;;;;;;;11.50;6.07;;;;;;;;;;4995760;28;20097;-70
2023/10/28 00:07:44;;;;;;;11.40;4.82;;;;;;;;;;4979901;28;20032;-71
2023/10/28 00:10:09;;;;;;;13.88;4.80;;;;;;;;;;4989149;28;20019;-72
2023/10/28 00:12:35;;;;;;;10.75;5.32;;;;;;;;;;4976162;28;20024;-72
2023/10/28 00:15:00;;;;;;;11.18;4.28;;;;;;;;;;4976290;28;20030;-72
2023/10/28 00:17:25;;;;;;;10.40;4.55;;;;;;;;;;4995597;28;20034;-71
2023/10/28 00:19:53;;;;;;;9.82;4.55;;;;;;;;;;4994952;28;20036;-71
2023/10/28 00:22:19;;;;;;;11.15;4.80;;;;;;;;;;4995986;28;20545;-71
2023/10/28 00:24:44;;;;;;;14.73;5.45;;;;;;;;;;4994886;28;20065;-72
2023/10/28 00:27:10;;;;;;;13.65;5.18;;;;;;;;;;5000729;28;20046;-71
2023/10/28 00:29:36;;;;;;;12.98;4.82;;;;;;;;;;4996261;28;20036;-72
2023/10/28 00:32:01;;;;;;;11.23;4.20;;;;;;;;;;4986489;28;20034;-71
2023/10/28 00:34:26;;;;;;;11.18;4.68;;;;;;;;;;4977508;28;20065;-71
2023/10/28 00:36:55;;;;;;;11.30;4.85;;;;;;;;;;4981906;28;20033;-71
2023/10/28 00:39:20;;;;;;;9.75;5.15;;;;;;;;;;4976208;28;20070;-72
2023/10/28 00:41:47;;;;;;;10.20;4.47;;;;;;;;;;4965777;28;20030;-71
2023/10/28 00:44:13;;;;;;;11.00;4.75;;;;;;;;;;4978932;28;20081;-71
2023/10/28 00:46:38;;;;;;;7.70;4.05;;;;;;;;;;4978733;28;20026;-72
2023/10/28 00:49:05;;;;;;;9.25;4.35;;;;;;;;;;4962865;28;20113;-71
2023/10/28 00:51:33;;;;;;;8.55;4.80;;;;;;;;;;4959067;28;20023;-72
2023/10/28 00:53:59;;;;;;;9.65;3.80;;;;;;;;;;4980805;28;20102;-71
2023/10/28 00:56:25;;;;;;;10.68;4.55;;;;;;;;;;4976020;28;20497;-71
2023/10/28 00:58:52;;;;;;;11.65;4.35;;;;;;;;;;4979171;28;20200;-72
2023/10/28 01:01:18;;;;;;;9.00;4.18;;;;;;;;;;4981739;28;20471;-71
2023/10/28 01:03:44;;;;;;;12.25;4.60;;;;;;;;;;5015777;28;20029;-71
2023/10/28 01:06:09;;;;;;;8.38;3.42;;;;;;;;;;4997701;28;20026;-72
2023/10/28 01:08:36;;;;;;;10.20;4.88;;;;;;;;;;4979237;28;20565;-72
2023/10/28 01:11:02;;;;;;;12.07;4.22;;;;;;;;;;4994257;28;20076;-70
2023/10/28 01:13:27;;;;;;;9.00;3.85;;;;;;;;;;4985251;28;20025;-71
2023/10/28 01:15:52;;;;;;;7.75;4.53;;;;;;;;;;4998326;28;20463;-71
2023/10/28 01:18:18;;;;;;;11.60;4.40;;;;;;;;;;4997983;28;20076;-71
2023/10/28 01:20:44;;;;;;;10.25;4.28;;;;;;;;;;4997505;28;20022;-71
2023/10/28 01:26:31;;;;;;;8.75;3.85;;;;;;;;;;5015488;28;20534;-71
2023/10/28 01:28:56;;;;;;;6.68;3.80;;;;;;;;;;5015519;28;20026;-71
2023/10/28 01:31:22;;;;;;;8.88;3.97;;;;;;;;;;5015802;28;20076;-71
2023/10/28 01:33:48;;;;;;;9.32;4.80;;;;;;;;;;5015293;28;20032;-71
2023/10/28 01:36:15;;;;;;;7.88;4.25;;;;;;;;;;4997910;28;20029;-71
2023/10/28 01:38:40;;;;;;;8.00;4.15;;;;;;;;;;4996933;28;20018;-71
2023/10/28 01:41:06;;;;;;;10.02;4.00;;;;;;;;;;4997978;28;20030;-71
2023/10/28 01:43:31;;;;;;;7.38;3.25;;;;;;;;;;4998102;28;20045;-71
2023/10/28 01:45:56;;;;;;;7.40;3.83;;;;;;;;;;4997393;28;20021;-71
2023/10/28 01:48:21;;;;;;;8.52;4.22;;;;;;;;;;5016421;28;20113;-71
2023/10/28 01:50:47;;;;;;;9.52;4.40;;;;;;;;;;4997753;28;20376;-71
2023/10/28 01:53:13;;;;;;;6.38;3.17;;;;;;;;;;5015346;28;20026;-71
2023/10/28 01:55:38;;;;;;;7.32;3.30;;;;;;;;;;4997893;28;20033;-70
2023/10/28 01:58:03;;;;;;;7.18;3.90;;;;;;;;;;4997185;28;20033;-71
2023/10/28 02:00:31;;;;;;;7.47;3.42;;;;;;;;;;5015114;28;20026;-71
2023/10/28 02:02:57;;;;;;;7.88;4.05;;;;;;;;;;4998361;28;20025;-71
2023/10/28 02:05:23;;;;;;;6.90;4.03;;;;;;;;;;4981395;28;20038;-71
2023/10/28 02:07:48;;;;;;;8.38;3.47;;;;;;;;;;4997587;28;20034;-71
2023/10/28 02:10:13;;;;;;;9.93;3.28;;;;;;;;;;5014955;28;20049;-71
2023/10/28 02:12:39;;;;;;;7.97;3.10;;;;;;;;;;4996818;28;20043;-71
2023/10/28 02:15:07;;;;;;;6.15;2.95;;;;;;;;;;4997269;28;20487;-71
2023/10/28 02:17:32;;;;;;;5.32;2.70;;;;;;;;;;4997541;28;20088;-71
2023/10/28 02:19:57;;;;;;;5.93;2.90;;;;;;;;;;4997296;28;20479;-71
2023/10/28 02:22:23;;;;;;;4.72;2.50;;;;;;;;;;4980648;28;20017;-71
2023/10/28 02:24:48;;;;;;;6.85;2.75;;;;;;;;;;4997231;28;20022;-71
2023/10/28 02:27:13;;;;;;;6.15;2.42;;;;;;;;;;5014756;28;20458;-71
2023/10/28 02:29:39;;;;;;;7.97;2.95;;;;;;;;;;5014585;28;20026;-71
2023/10/28 02:32:08;;;;;;;3.30;2.20;;;;;;;;;;4996666;28;20467;-71
2023/10/28 02:34:34;;;;;;;4.25;2.35;;;;;;;;;;4980950;28;20026;-71
2023/10/28 02:36:59;;;;;;;5.15;2.88;;;;;;;;;;4996589;28;20084;-71
2023/10/28 02:39:26;;;;;;;4.32;2.90;;;;;;;;;;5014630;28;20396;-71
2023/10/28 02:41:52;;;;;;;4.25;2.50;;;;;;;;;;4996756;28;20022;-70
2023/10/28 02:44:17;;;;;;;6.20;2.75;;;;;;;;;;4996273;28;20028;-71
2023/10/28 02:46:42;;;;;;;3.17;2.75;;;;;;;;;;4996892;28;20387;-71
2023/10/28 02:49:08;;;;;;;4.95;2.42;;;;;;;;;;4980493;28;20026;-71
2023/10/28 02:51:33;;;;;;;4.82;3.17;;;;;;;;;;5014141;28;20387;-71
2023/10/28 02:53:59;;;;;;;7.80;3.60;;;;;;;;;;5014300;28;20098;-71
2023/10/28 02:56:24;;;;;;;3.80;2.22;;;;;;;;;;4997814;28;20033;-73
2023/10/28 02:58:50;;;;;;;4.35;2.58;;;;;;;;;;5002103;28;20057;-71
2023/10/28 03:01:15;;;;;;;6.53;3.03;;;;;;;;;;5002991;28;20493;-71
2023/10/28 03:03:41;;;;;;;5.30;2.80;;;;;;;;;;4996035;28;20568;-71
2023/10/28 03:06:09;;;;;;;5.72;2.90;;;;;;;;;;4995971;28;20029;-71
2023/10/28 03:08:35;;;;;;;6.68;3.25;;;;;;;;;;5013975;28;20018;-71
2023/10/28 03:11:01;;;;;;;6.40;3.20;;;;;;;;;;4995606;28;20494;-71
2023/10/28 03:13:26;;;;;;;7.63;4.20;;;;;;;;;;5014015;28;20057;-71
2023/10/28 03:15:52;;;;;;;6.20;3.15;;;;;;;;;;5013833;28;20022;-71
2023/10/28 03:18:17;;;;;;;5.15;2.65;;;;;;;;;;4996360;28;20033;-71
2023/10/28 03:20:42;;;;;;;6.07;2.95;;;;;;;;;;5013036;28;20137;-71
2023/10/28 03:23:07;;;;;;;8.60;3.03;;;;;;;;;;4996328;28;20471;-71
2023/10/28 03:25:33;;;;;;;4.82;3.05;;;;;;;;;;4995904;28;20024;-71
2023/10/28 03:28:02;;;;;;;5.88;2.67;;;;;;;;;;4996232;28;20132;-71
2023/10/28 03:30:28;;;;;;;6.90;3.30;;;;;;;;;;4979993;28;20053;-71
2023/10/28 03:32:53;;;;;;;7.10;3.40;;;;;;;;;;4995589;28;20033;-71
2023/10/28 03:35:18;;;;;;;6.65;3.00;;;;;;;;;;4996432;28;20034;-71
2023/10/28 03:37:44;;;;;;;6.38;3.30;;;;;;;;;;4996246;28;20025;-71
2023/10/28 03:40:10;;;;;;;8.60;3.53;;;;;;;;;;4996062;28;20457;-71
2023/10/28 03:42:36;;;;;;;6.28;3.33;;;;;;;;;;4995550;28;20025;-72
2023/10/28 03:45:02;;;;;;;10.13;3.38;;;;;;;;;;5013040;28;20026;-71
2023/10/28 03:47:29;;;;;;;7.15;3.20;;;;;;;;;;5012987;28;20180;-72
2023/10/28 03:49:55;;;;;;;11.18;3.78;;;;;;;;;;4996172;28;20026;-71
2023/10/28 03:52:20;;;;;;;7.32;3.80;;;;;;;;;;5013361;28;20017;-70
2023/10/28 03:54:45;;;;;;;11.15;4.82;;;;;;;;;;4995652;28;20509;-71
2023/10/28 03:57:10;;;;;;;8.10;3.75;;;;;;;;;;4995272;28;20030;-71
2023/10/28 03:59:36;;;;;;;8.15;3.35;;;;;;;;;;5013306;28;20025;-72
2023/10/28 04:02:03;;;;;;;8.57;4.15;;;;;;;;;;5002603;28;20121;-71
2023/10/28 04:04:28;;;;;;;8.27;3.72;;;;;;;;;;4997769;28;20094;-71
2023/10/28 04:06:55;;;;;;;7.95;3.92;;;;;;;;;;4978135;28;20053;-71
2023/10/28 04:09:23;;;;;;;6.20;3.38;;;;;;;;;;4980726;28;20029;-72
2023/10/28 04:11:48;;;;;;;6.38;4.07;;;;;;;;;;4978058;28;20027;-71
2023/10/28 04:14:13;;;;;;;8.93;3.95;;;;;;;;;;4979417;28;20053;-71
2023/10/28 04:16:39;;;;;;;8.23;3.30;;;;;;;;;;4995648;28;20475;-72
2023/10/28 04:19:04;;;;;;;7.15;3.75;;;;;;;;;;4979293;28;20113;-71
2023/10/28 04:21:30;;;;;;;7.07;3.63;;;;;;;;;;4996942;28;20104;-71
2023/10/28 04:23:55;;;;;;;6.65;3.58;;;;;;;;;;4982336;28;20076;-72
2023/10/28 04:26:20;;;;;;;6.55;3.60;;;;;;;;;;5016973;28;20030;-72
2023/10/28 04:28:46;;;;;;;7.55;3.50;;;;;;;;;;4998440;28;20034;-72
2023/10/28 04:31:11;;;;;;;6.72;3.05;;;;;;;;;;5016510;28;20022;-71
2023/10/28 04:33:36;;;;;;;4.75;3.10;;;;;;;;;;4999002;28;20569;-72
2023/10/28 04:36:02;;;;;;;6.15;2.92;;;;;;;;;;5009026;28;20030;-71
2023/10/28 04:38:28;;;;;;;5.50;2.95;;;;;;;;;;4990898;28;20057;-72
2023/10/28 04:40:55;;;;;;;7.88;3.65;;;;;;;;;;4996737;28;20026;-71
2023/10/28 04:43:20;;;;;;;8.27;3.10;;;;;;;;;;4980104;28;20030;-71
2023/10/28 04:45:45;;;;;;;8.32;3.55;;;;;;;;;;4979520;28;20038;-71
2023/10/28 04:48:13;;;;;;;6.80;3.55;;;;;;;;;;4996501;28;20045;-71
2023/10/28 04:50:38;;;;;;;7.97;4.07;;;;;;;;;;4979946;28;20388;-71
2023/10/28 04:53:04;;;;;;;8.18;3.40;;;;;;;;;;4996861;28;20034;-71
2023/10/28 04:55:29;;;;;;;6.55;4.53;;;;;;;;;;4995818;28;20037;-71
2023/10/28 04:57:54;;;;;;;7.43;3.28;;;;;;;;;;4996321;28;20030;-72
2023/10/28 05:00:20;;;;;;;7.55;3.60;;;;;;;;;;4996834;28;20360;-71
2023/10/28 05:02:45;;;;;;;5.30;2.83;;;;;;;;;;4995615;28;20022;-71
2023/10/28 05:05:10;;;;;;;6.38;3.42;;;;;;;;;;4979137;28;20022;-71
2023/10/28 05:07:36;;;;;;;6.65;3.28;;;;;;;;;;4996734;28;20027;-71
2023/10/28 05:10:03;;;;;;;5.85;3.15;;;;;;;;;;4996171;28;20105;-71
2023/10/28 05:12:28;;;;;;;7.43;3.35;;;;;;;;;;4996739;28;20081;-71
2023/10/28 05:14:53;;;;;;;6.93;3.83;;;;;;;;;;4995333;28;20056;-71
2023/10/28 05:17:19;;;;;;;7.88;3.72;;;;;;;;;;4995264;28;20034;-71
2023/10/28 05:19:44;;;;;;;7.03;3.05;;;;;;;;;;4995908;28;20110;-71
2023/10/28 05:22:09;;;;;;;7.97;3.10;;;;;;;;;;4996369;28;20616;-71
2023/10/28 05:24:35;;;;;;;6.97;3.42;;;;;;;;;;4995110;28;20033;-71
2023/10/28 05:27:00;;;;;;;6.60;3.65;;;;;;;;;;4996535;28;20550;-71
2023/10/28 05:29:25;;;;;;;6.97;3.20;;;;;;;;;;4996736;28;20022;-71
2023/10/28 05:31:51;;;;;;;6.10;3.15;;;;;;;;;;4995767;28;20538;-71
2023/10/28 05:34:19;;;;;;;6.50;3.45;;;;;;;;;;4979200;28;20377;-71
2023/10/28 05:36:44;;;;;;;7.07;3.55;;;;;;;;;;4994740;28;20030;-71
2023/10/28 05:39:09;;;;;;;9.63;4.18;;;;;;;;;;4996162;28;20033;-71
2023/10/28 05:41:34;;;;;;;9.00;3.85;;;;;;;;;;4995360;28;20025;-71
2023/10/28 05:44:00;;;;;;;6.78;3.85;;;;;;;;;;4994961;28;20027;-70
2023/10/28 05:46:25;;;;;;;12.73;3.70;;;;;;;;;;4996660;28;20023;-71
2023/10/28 05:48:50;;;;;;;9.45;4.10;;;;;;;;;;4995985;28;20029;-70
2023/10/28 05:51:17;;;;;;;8.25;3.85;;;;;;;;;;4995949;28;20022;-71
2023/10/28 05:53:42;;;;;;;7.78;3.28;;;;;;;;;;4995247;28;20460;-71
2023/10/28 05:56:07;;;;;;;6.57;3.75;;;;;;;;;;4995557;28;20038;-71
2023/10/28 05:58:32;;;;;;;8.27;3.70;;;;;;;;;;4977954;28;20026;-71
2023/10/28 06:01:02;;;;;;;9.13;3.90;;;;;;;;;;4995297;28;20027;-71
2023/10/28 06:03:27;;;;;;;7.10;3.85;;;;;;;;;;4994061;28;20458;-71
2023/10/28 06:05:52;;;;;;;9.75;4.10;;;;;;;;;;4994636;28;20018;-71
2023/10/28 06:08:18;;;;;;;7.75;4.03;;;;;;;;;;4994547;28;20034;-71
2023/10/28 06:10:45;;;;;;;7.70;4.05;;;;;;;;;;4995405;28;20026;-71
2023/10/28 06:13:11;;;;;;;6.82;3.70;;;;;;;;;;4978532;28;20022;-70
2023/10/28 06:15:37;;;;;;;9.82;4.28;;;;;;;;;;4994122;28;20354;-71
2023/10/28 06:18:02;;;;;;;7.72;3.55;;;;;;;;;;4995186;28;20038;-71
2023/10/28 06:20:28;;;;;;;8.00;4.03;;;;;;;;;;4994054;28;20025;-70
2023/10/28 06:22:53;;;;;;;7.07;3.55;;;;;;;;;;4994080;28;20034;-71
2023/10/28 06:25:18;;;;;;;7.97;3.95;;;;;;;;;;4993369;28;20033;-71
2023/10/28 06:27:44;;;;;;;6.35;3.58;;;;;;;;;;4995503;28;20065;-70
2023/10/28 06:30:11;;;;;;;7.70;3.92;;;;;;;;;;4994897;28;20112;-70
2023/10/28 06:32:38;;;;;;;11.68;5.03;;;;;;;;;;4994035;28;20030;-70
2023/10/28 06:35:04;;;;;;;9.52;4.32;;;;;;;;;;4977718;28;20403;-71
2023/10/28 06:37:33;;;;;;;6.93;3.40;;;;;;;;;;4977644;28;20128;-71
2023/10/28 06:39:58;;;;;;;7.95;3.97;;;;;;;;;;4977025;28;20030;-71
2023/10/28 06:42:24;;;;;;;8.13;4.20;;;;;;;;;;4994927;28;20022;-71
2023/10/28 06:44:49;;;;;;;8.55;4.22;;;;;;;;;;4977529;28;20076;-71
2023/10/28 06:47:14;;;;;;;7.13;3.35;;;;;;;;;;4993140;28;20029;-71
2023/10/28 06:49:41;;;;;;;6.82;4.13;;;;;;;;;;4995151;28;20033;-71
2023/10/28 06:52:07;;;;;;;6.93;3.22;;;;;;;;;;4993617;28;20109;-71
2023/10/28 06:54:32;;;;;;;11.32;4.30;;;;;;;;;;4993404;28;20060;-71
2023/10/28 06:56:57;;;;;;;11.27;5.68;;;;;;;;;;4994707;28;20022;-71
2023/10/28 06:59:24;;;;;;;10.77;4.47;;;;;;;;;;4977259;28;20117;-71
2023/10/28 07:01:49;;;;;;;8.00;3.65;;;;;;;;;;4977302;28;20027;-71
2023/10/28 07:04:14;;;;;;;13.52;4.72;;;;;;;;;;4960599;28;20029;-71
2023/10/28 07:06:40;;;;;;;9.60;4.32;;;;;;;;;;4994583;28;20022;-70
2023/10/28 07:09:05;;;;;;;6.80;4.05;;;;;;;;;;4976981;28;20027;-71
2023/10/28 07:11:31;;;;;;;10.43;3.97;;;;;;;;;;4995042;28;20041;-71
2023/10/28 07:13:56;;;;;;;9.45;4.28;;;;;;;;;;4994115;28;20026;-70
2023/10/28 07:16:21;;;;;;;11.95;4.10;;;;;;;;;;4994515;28;20230;-71
2023/10/28 07:18:48;;;;;;;9.50;4.25;;;;;;;;;;4994715;28;20029;-71
2023/10/28 07:21:14;;;;;;;6.13;4.20;;;;;;;;;;4994244;28;20023;-71
2023/10/28 07:23:40;;;;;;;10.10;3.55;;;;;;;;;;4993161;28;20018;-70
2023/10/28 07:26:05;;;;;;;8.00;3.70;;;;;;;;;;4976275;28;20026;-71
2023/10/28 07:28:34;;;;;;;7.50;3.42;;;;;;;;;;4994136;28;20029;-71
2023/10/28 07:31:00;;;;;;;8.38;4.03;;;;;;;;;;4994352;28;20030;-71
2023/10/28 07:33:25;;;;;;;8.15;3.85;;;;;;;;;;4993193;28;20026;-71
2023/10/28 07:35:51;;;;;;;9.02;4.03;;;;;;;;;;4994237;28;20100;-72
2023/10/28 07:38:17;;;;;;;5.13;3.03;;;;;;;;;;4976218;28;20479;-71
2023/10/28 07:40:46;;;;;;;8.43;3.53;;;;;;;;;;4976712;28;20031;-71
2023/10/28 07:43:12;;;;;;;6.40;3.05;;;;;;;;;;4982166;28;20077;-71
2023/10/28 07:45:42;;;;;;;8.30;3.85;;;;;;;;;;4976516;28;20026;-71
2023/10/28 07:48:08;;;;;;;7.75;3.72;;;;;;;;;;4963358;28;20106;-71
2023/10/28 07:50:34;;;;;;;8.13;3.33;;;;;;;;;;4965006;28;20026;-71
2023/10/28 07:53:00;;;;;;;9.27;3.70;;;;;;;;;;4992458;28;20030;-70
2023/10/28 07:55:25;;;;;;;7.72;4.20;;;;;;;;;;4992831;28;20022;-70
2023/10/28 07:57:50;;;;;;;8.20;3.80;;;;;;;;;;4993275;28;20058;-71
2023/10/28 08:00:16;;;;;;;7.65;3.80;;;;;;;;;;4993751;28;20057;-71
2023/10/28 08:02:45;;;;;;;8.02;3.55;;;;;;;;;;4992576;28;20077;-70
2023/10/28 08:05:11;;;;;;;7.28;3.42;;;;;;;;;;4976644;28;20041;-70
2023/10/28 08:07:37;;;;;;;8.38;3.88;;;;;;;;;;4992069;28;20089;-70
2023/10/28 08:10:04;;;;;;;7.45;3.35;;;;;;;;;;4976137;28;20022;-70
2023/10/28 08:12:29;;;;;;;8.48;3.63;;;;;;;;;;5001269;28;20024;-70
2023/10/28 08:14:54;;;;;;;7.85;4.10;;;;;;;;;;4995507;28;20139;-70
2023/10/28 08:17:21;;;;;;;6.13;4.10;;;;;;;;;;5013236;28;20438;-70
2023/10/28 08:19:46;;;;;;;6.60;3.35;;;;;;;;;;4995318;28;20121;-70
2023/10/28 08:22:12;;;;;;;6.18;3.90;;;;;;;;;;5012625;28;20586;-70
2023/10/28 08:24:37;;;;;;;6.95;3.78;;;;;;;;;;4995895;28;20068;-71
2023/10/28 08:27:03;;;;;;;8.20;3.55;;;;;;;;;;5013106;28;20056;-70
2023/10/28 08:29:28;;;;;;;5.72;2.83;;;;;;;;;;4995150;28;20032;-70
2023/10/28 08:31:54;;;;;;;6.10;3.30;;;;;;;;;;4979055;28;20026;-70
2023/10/28 08:34:19;;;;;;;6.28;3.33;;;;;;;;;;4995315;28;20030;-70
2023/10/28 08:36:44;;;;;;;6.57;3.30;;;;;;;;;;5003453;28;20568;-70
2023/10/28 08:39:12;;;;;;;6.80;3.38;;;;;;;;;;4991654;28;20029;-70
2023/10/28 08:41:38;;;;;;;6.20;3.33;;;;;;;;;;4952571;28;20483;-71
2023/10/28 08:44:04;;;;;;;6.75;3.15;;;;;;;;;;4938840;28;76316;-70
2023/10/28 08:46:31;;;;;;;5.22;2.80;;;;;;;;;;4941455;28;20545;-70
2023/10/28 08:48:58;;;;;;;7.88;3.38;;;;;;;;;;4956334;28;20066;-70
2023/10/28 08:51:24;;;;;;;6.30;2.97;;;;;;;;;;4956485;29;20026;-71
2023/10/28 08:53:52;;;;;;;7.00;3.45;;;;;;;;;;4954575;29;20058;-70
2023/10/28 08:56:20;;;;;;;6.97;2.97;;;;;;;;;;4940451;29;20027;-70
2023/10/28 08:58:48;;;;;;;4.57;2.63;;;;;;;;;;4940393;29;20039;-70
2023/10/28 09:01:14;;;;;;;6.05;3.00;;;;;;;;;;4957486;29;20027;-71
2023/10/28 09:03:40;;;;;;;7.00;4.07;;;;;;;;;;4954430;29;20400;-70
2023/10/28 09:06:05;;;;;;;8.00;3.63;;;;;;;;;;4940628;29;20023;-70
2023/10/28 09:08:31;;;;;;;5.78;2.90;;;;;;;;;;4940432;29;20031;-71
2023/10/28 09:10:57;;;;;;;7.05;3.40;;;;;;;;;;4940066;29;20021;-70
2023/10/28 09:13:23;;;;;;;4.47;2.67;;;;;;;;;;4955234;29;20106;-70
2023/10/28 09:15:49;;;;;;;5.80;3.20;;;;;;;;;;4955345;29;20556;-71
2023/10/28 09:18:14;;;;;;;5.05;2.85;;;;;;;;;;4921388;29;20508;-71
2023/10/28 09:20:41;;;;;;;6.00;2.50;;;;;;;;;;4921003;29;20114;-71
2023/10/28 09:23:06;;;;;;;5.18;2.60;;;;;;;;;;4940234;29;20042;-70
2023/10/28 09:25:34;;;;;;;4.13;2.70;;;;;;;;;;4956145;29;20027;-71
2023/10/28 09:27:59;;;;;;;6.43;2.90;;;;;;;;;;4956713;29;20031;-71
2023/10/28 09:30:25;;;;;;;4.65;2.30;;;;;;;;;;4923967;29;20038;-71
2023/10/28 09:32:53;;;;;;;6.10;2.60;;;;;;;;;;4957043;29;20030;-71
2023/10/28 09:35:19;;;;;;;5.85;2.63;;;;;;;;;;4940451;29;20044;-71
2023/10/28 09:37:44;;;;;;;6.18;2.65;;;;;;;;;;4956933;29;20031;-71
2023/10/28 09:40:12;;;;;;;3.65;2.30;;;;;;;;;;4940189;29;20023;-71
2023/10/28 09:42:38;;;;;;;6.82;3.17;;;;;;;;;;4955597;28;20058;-71
2023/10/28 09:45:05;;;;;;;4.70;2.60;;;;;;;;;;4939785;29;20031;-71
2023/10/28 09:47:49;;;;;;;4.97;2.78;;;;;;;;;;4939611;29;20174;-71
2023/10/28 09:50:16;;;;;;;4.20;2.13;;;;;;;;;;4943134;29;20055;-71
2023/10/28 09:52:45;;;;;;;5.50;2.63;;;;;;;;;;4920898;29;20024;-70
2023/10/28 09:55:15;;;;;;;5.00;2.50;;;;;;;;;;4934656;29;20050;-70
2023/10/28 09:57:41;;;;;;;4.72;2.03;;;;;;;;;;4956623;29;20456;-71
2023/10/28 10:00:17;;;;;;;3.92;2.55;;;;;;;;;;4938706;29;20103;-71
2023/10/28 10:02:54;;;;;;;3.92;2.40;;;;;;;;;;4941053;29;20028;-71
2023/10/28 10:05:25;;;;;;;4.85;2.22;;;;;;;;;;4939605;29;20047;-71
2023/10/28 10:07:52;;;;;;;8.15;2.50;;;;;;;;;;4955973;29;20027;-70
2023/10/28 10:10:20;;;;;;;4.18;2.85;;;;;;;;;;4955033;29;20436;-71
2023/10/28 10:12:48;;;;;;;4.15;2.30;;;;;;;;;;4938971;29;20054;-71
2023/10/28 10:15:13;;;;;;;4.88;2.55;;;;;;;;;;4956945;29;20042;-70
2023/10/28 10:18:08;;;;;;;3.88;2.15;;;;;;;;;;4923394;29;20027;-71
2023/10/28 10:20:35;;;;;;;4.40;2.15;;;;;;;;;;4948581;29;20525;-70
2023/10/28 10:23:02;;;;;;;3.95;2.35;;;;;;;;;;4935830;29;20035;-71
2023/10/28 10:25:41;;;;;;;4.93;2.67;;;;;;;;;;4920644;29;20056;-71
2023/10/28 10:28:19;;;;;;;3.58;1.90;;;;;;;;;;4938812;29;20062;-71
2023/10/28 10:30:44;;;;;;;3.78;2.15;;;;;;;;;;4955216;29;20019;-70
2023/10/28 10:33:10;;;;;;;5.03;2.55;;;;;;;;;;4951515;29;20030;-71
2023/10/28 10:35:38;;;;;;;3.90;2.47;;;;;;;;;;4955692;29;20464;-71
2023/10/28 10:38:05;;;;;;;4.70;2.30;;;;;;;;;;4955570;29;20424;-71
2023/10/28 10:40:33;;;;;;;4.40;2.13;;;;;;;;;;4920411;29;20028;-71
2023/10/28 10:43:08;;;;;;;4.95;2.30;;;;;;;;;;4936967;29;20030;-71
2023/10/28 10:45:35;;;;;;;4.25;2.35;;;;;;;;;;4919937;29;20031;-70
2023/10/28 10:48:02;;;;;;;3.33;1.83;;;;;;;;;;4920426;29;20035;-70
2023/10/28 10:50:28;;;;;;;4.72;2.60;;;;;;;;;;4920143;29;20484;-70
2023/10/28 10:52:53;;;;;;;7.30;3.10;;;;;;;;;;4920204;29;20039;-70
2023/10/28 10:55:23;;;;;;;3.92;2.50;;;;;;;;;;4936525;29;20027;-71
2023/10/28 10:57:48;;;;;;;3.42;2.22;;;;;;;;;;4937166;29;20508;-71
2023/10/28 11:00:14;;;;;;;3.65;2.35;;;;;;;;;;4937264;29;20031;-70
2023/10/28 11:02:39;;;;;;;3.70;2.25;;;;;;;;;;4936914;29;20028;-71
2023/10/28 11:05:05;;;;;;;4.00;2.17;;;;;;;;;;4920392;29;20486;-70
2023/10/28 11:07:30;;;;;;;3.60;2.20;;;;;;;;;;4919879;29;20122;-70
2023/10/28 11:09:55;;;;;;;4.82;2.47;;;;;;;;;;4919545;29;20060;-71
2023/10/28 11:12:23;;;;;;;3.40;2.05;;;;;;;;;;4936877;29;20076;-70
2023/10/28 11:14:48;;;;;;;5.00;2.50;;;;;;;;;;4919722;29;20027;-70
2023/10/28 11:17:13;;;;;;;3.90;2.40;;;;;;;;;;4936886;29;20064;-70
2023/10/28 11:19:47;;;;;;;3.70;1.92;;;;;;;;;;4919946;29;20160;-70
2023/10/28 11:22:12;;;;;;;4.00;2.63;;;;;;;;;;4935041;29;20122;-70
2023/10/28 11:24:38;;;;;;;2.88;1.70;;;;;;;;;;4935489;29;20106;-70
2023/10/28 11:27:03;;;;;;;5.53;2.50;;;;;;;;;;4919412;29;20027;-70
2023/10/28 11:29:29;;;;;;;3.35;1.90;;;;;;;;;;4919747;29;20099;-70
2023/10/28 11:31:55;;;;;;;3.20;1.85;;;;;;;;;;4919576;29;20027;-70
2023/10/28 11:34:20;;;;;;;4.40;2.25;;;;;;;;;;4919710;29;20027;-70
2023/10/28 11:36:45;;;;;;;3.83;2.38;;;;;;;;;;4935475;29;20024;-71
2023/10/28 11:39:13;;;;;;;4.63;2.55;;;;;;;;;;4918783;29;20042;-70
2023/10/28 11:41:38;;;;;;;2.63;1.65;;;;;;;;;;4918971;29;20023;-70
2023/10/28 11:44:04;;;;;;;4.25;2.30;;;;;;;;;;4919038;29;20078;-71
2023/10/28 11:46:29;;;;;;;4.05;2.20;;;;;;;;;;4935375;29;20537;-71
2023/10/28 11:48:55;;;;;;;4.20;1.88;;;;;;;;;;4935592;29;20027;-71
2023/10/28 11:51:21;;;;;;;3.05;1.77;;;;;;;;;;4918685;29;20048;-70
2023/10/28 11:53:47;;;;;;;3.72;2.50;;;;;;;;;;4935214;29;20032;-70
2023/10/28 11:56:15;;;;;;;3.60;2.00;;;;;;;;;;4935644;29;20082;-70
2023/10/28 11:58:41;;;;;;;3.53;2.00;;;;;;;;;;4918891;29;20071;-70
2023/10/28 12:01:06;;;;;;;3.58;1.85;;;;;;;;;;4918395;29;20028;-70
2023/10/28 12:03:33;;;;;;;3.67;2.20;;;;;;;;;;4918556;29;20028;-70
2023/10/28 12:05:58;;;;;;;4.22;2.10;;;;;;;;;;4934926;29;20059;-71
2023/10/28 12:08:23;;;;;;;3.67;2.30;;;;;;;;;;4935327;29;20059;-71
2023/10/28 12:10:48;;;;;;;2.95;1.77;;;;;;;;;;4935452;29;20027;-70
2023/10/28 12:13:17;;;;;;;5.50;2.55;;;;;;;;;;4918220;29;20024;-70
2023/10/28 12:15:43;;;;;;;3.65;2.20;;;;;;;;;;4936067;29;20036;-70
2023/10/28 12:18:09;;;;;;;7.18;2.20;;;;;;;;;;4934733;29;20031;-70
2023/10/28 12:20:34;;;;;;;5.25;2.97;;;;;;;;;;4933962;29;20086;-70
2023/10/28 12:23:00;;;;;;;5.07;2.65;;;;;;;;;;4919614;29;20110;-70
2023/10/28 12:25:25;;;;;;;5.38;2.60;;;;;;;;;;4938334;29;20034;-71
2023/10/28 12:27:51;;;;;;;4.10;2.63;;;;;;;;;;4938110;29;20028;-70
2023/10/28 12:30:17;;;;;;;4.18;2.20;;;;;;;;;;4921591;29;20095;-70
2023/10/28 12:32:42;;;;;;;4.38;2.45;;;;;;;;;;4921717;29;20481;-70
2023/10/28 12:37:50;;;;;;;;;;;;;;;;;;5071112;28;20386;-69
2023/10/28 12:40:15;;;;;;;5.80;2.63;;;;;;;;;;5070902;28;20300;-69
2023/10/28 12:42:41;;;;;;;6.13;2.65;;;;;;;;;;5070715;28;20037;-69
2023/10/28 12:45:08;;;;;;;5.22;2.65;;;;;;;;;;5070223;28;20393;-69
2023/10/28 12:47:34;;;;;;;4.88;2.53;;;;;;;;;;5049388;28;20028;-70
2023/10/28 12:50:03;;;;;;;5.88;3.10;;;;;;;;;;5049335;28;20021;-69
2023/10/28 12:52:31;;;;;;;4.82;3.45;;;;;;;;;;5050583;28;20025;-69
2023/10/28 12:55:03;;;;;;;5.68;2.85;;;;;;;;;;5049252;28;20021;-69
2023/10/28 12:57:28;;;;;;;;;;;;;;;;;;5049379;28;20100;-69
2023/10/28 12:59:54;;;;;;;5.30;3.00;;;;;;;;;;5050644;28;20346;-69
2023/10/28 13:02:19;;;;;;;5.18;3.20;;;;;;;;;;5050412;28;20115;-69
2023/10/28 13:04:44;;;;;;;4.00;3.03;;;;;;;;;;5050433;28;20025;-69
2023/10/28 13:07:10;;;;;;;4.90;2.72;;;;;;;;;;5048900;28;20013;-69
2023/10/28 13:09:36;;;;;;;7.13;3.13;;;;;;;;;;5049680;28;20098;-69
2023/10/28 13:12:01;;;;;;;5.75;3.20;;;;;;;;;;5048984;28;20021;-69
2023/10/28 13:14:27;;;;;;;4.07;2.65;;;;;;;;;;5048892;28;20024;-68
2023/10/28 13:16:52;;;;;;;6.05;3.22;;;;;;;;;;5048587;28;20021;-68
2023/10/28 13:19:19;;;;;;;6.43;3.75;;;;;;;;;;5050218;28;20407;-68
2023/10/28 13:21:45;;;;;;;7.13;2.78;;;;;;;;;;5049127;28;20025;-68
2023/10/28 13:24:10;;;;;;;5.05;3.05;;;;;;;;;;5050241;28;20028;-68
2023/10/28 13:26:35;;;;;;;6.35;3.00;;;;;;;;;;5049782;28;20044;-68
2023/10/28 13:29:01;;;;;;;4.53;2.85;;;;;;;;;;5049712;28;20024;-68
2023/10/28 13:31:26;;;;;;;6.68;3.13;;;;;;;;;;5049528;28;20040;-68
2023/10/28 13:33:51;;;;;;;4.95;2.90;;;;;;;;;;5049463;28;20060;-68
2023/10/28 13:36:17;;;;;;;5.57;2.97;;;;;;;;;;5048106;28;20096;-68
2023/10/28 13:38:42;;;;;;;7.55;3.50;;;;;;;;;;5049442;28;20429;-68
2023/10/28 13:41:07;;;;;;;5.25;3.00;;;;;;;;;;5049004;28;20075;-68
2023/10/28 13:43:33;;;;;;;9.52;3.63;;;;;;;;;;5045091;28;20132;-68
2023/10/28 13:46:03;;;;;;;11.45;3.67;;;;;;;;;;5044952;28;20017;-69
2023/10/28 13:48:28;;;;;;;5.25;3.45;;;;;;;;;;5038679;28;20029;-68
2023/10/28 13:50:54;;;;;;;5.65;3.25;;;;;;;;;;5020365;28;20032;-68
2023/10/28 13:53:19;;;;;;;5.75;3.10;;;;;;;;;;5030072;28;20447;-68
2023/10/28 13:55:44;;;;;;;6.75;3.78;;;;;;;;;;5049100;28;20033;-68
2023/10/28 13:58:09;;;;;;;5.88;3.42;;;;;;;;;;5035645;28;20032;-68
2023/10/28 14:00:35;;;;;;;4.90;3.35;;;;;;;;;;5034453;28;20392;-68
2023/10/28 14:03:01;;;;;;;5.68;3.40;;;;;;;;;;5034618;28;20025;-68
2023/10/28 14:05:27;;;;;;;6.65;3.70;;;;;;;;;;5031643;28;20075;-68
2023/10/28 14:07:53;;;;;;;7.85;3.60;;;;;;;;;;5033912;28;20113;-68
2023/10/28 14:10:19;;;;;;;7.85;3.92;;;;;;;;;;5034593;28;20031;-68
2023/10/28 14:12:44;;;;;;;6.53;3.28;;;;;;;;;;5033404;28;20060;-68
2023/10/28 14:15:10;;;;;;;7.28;4.05;;;;;;;;;;5035382;28;20493;-68
2023/10/28 14:17:35;;;;;;;8.73;4.22;;;;;;;;;;5035722;28;20041;-68
2023/10/28 14:20:01;;;;;;;6.07;3.63;;;;;;;;;;5034441;28;20096;-68
2023/10/28 14:22:26;;;;;;;7.07;3.42;;;;;;;;;;5035509;28;20401;-68
2023/10/28 14:24:52;;;;;;;5.93;3.47;;;;;;;;;;5050031;28;20496;-68
2023/10/28 14:27:17;;;;;;;6.88;3.53;;;;;;;;;;5034655;28;20030;-69
2023/10/28 14:29:42;;;;;;;7.85;4.28;;;;;;;;;;5050140;28;20029;-68
2023/10/28 14:32:12;;;;;;;7.72;3.92;;;;;;;;;;5042724;28;20116;-68
2023/10/28 14:34:41;;;;;;;9.02;4.47;;;;;;;;;;5014757;28;20022;-69
2023/10/28 14:37:07;;;;;;;7.65;3.95;;;;;;;;;;5014827;28;20081;-68
2023/10/28 14:39:33;;;;;;;8.32;4.13;;;;;;;;;;5015538;28;20463;-68
2023/10/28 14:41:58;;;;;;;6.85;3.58;;;;;;;;;;5027102;28;20053;-68